createdAt,value
2022-11-29T00:01:06.344Z,21.88
2022-11-29T00:03:33.568Z,28.50
2022-11-29T00:06:07.911Z,33.92
2022-11-29T00:08:35.257Z,27.45
2022-11-29T00:11:10.917Z,26.42
2022-11-29T00:13:37.634Z,28.70
2022-11-29T00:16:06.331Z,28.48
2022-11-29T00:18:33.203Z,25.05
2022-11-29T00:21:00.038Z,25.75
2022-11-29T00:23:26.729Z,23.90
2022-11-29T00:25:53.382Z,28.80
2022-11-29T00:28:19.948Z,26.92
2022-11-29T00:30:47.215Z,24.40
2022-11-29T00:33:13.902Z,25.92
2022-11-29T00:35:40.522Z,28.40
2022-11-29T00:38:07.207Z,20.92
2022-11-29T00:40:33.813Z,22.73
2022-11-29T00:43:00.376Z,24.90
2022-11-29T00:45:26.977Z,20.20
2022-11-29T00:47:53.552Z,22.88
2022-11-29T00:50:20.219Z,20.13
2022-11-29T00:52:46.761Z,22.00
2022-11-29T00:55:13.575Z,18.15
2022-11-29T00:57:40.099Z,18.63
2022-11-29T01:00:07.469Z,24.65
2022-11-29T01:02:34.060Z,26.55
2022-11-29T01:05:00.701Z,20.98
2022-11-29T01:07:27.263Z,20.50
2022-11-29T01:09:53.884Z,18.92
2022-11-29T01:12:20.433Z,23.88
2022-11-29T01:14:47.258Z,17.38
2022-11-29T01:17:14.112Z,18.95
2022-11-29T01:19:40.734Z,18.35
2022-11-29T01:22:07.280Z,20.13
2022-11-29T01:24:33.875Z,15.38
2022-11-29T01:27:00.535Z,21.08
2022-11-29T01:29:27.133Z,22.17
2022-11-29T01:31:53.707Z,18.20
2022-11-29T01:34:20.419Z,24.42
2022-11-29T01:36:46.961Z,21.13
2022-11-29T01:39:13.621Z,17.52
2022-11-29T01:41:40.180Z,20.10
2022-11-29T01:44:12.783Z,20.70
2022-11-29T01:46:41.466Z,23.38
2022-11-29T01:49:31.611Z,20.92
2022-11-29T01:52:05.729Z,18.25
2022-11-29T01:54:35.661Z,21.75
2022-11-29T01:57:06.091Z,20.67
2022-11-29T01:59:33.088Z,23.05
2022-11-29T02:02:05.796Z,20.48
2022-11-29T02:04:36.318Z,25.98
2022-11-29T02:07:03.210Z,22.30
2022-11-29T02:09:29.774Z,24.33
2022-11-29T02:12:24.355Z,22.13
2022-11-29T02:15:13.922Z,18.80
2022-11-29T02:18:05.348Z,19.50
2022-11-29T02:20:53.133Z,18.02
2022-11-29T02:23:49.866Z,20.73
2022-11-29T02:26:34.852Z,22.58
2022-11-29T02:29:09.872Z,18.75
2022-11-29T02:31:47.837Z,16.10
2022-11-29T02:34:23.436Z,20.35
2022-11-29T02:36:59.362Z,18.00
2022-11-29T02:39:37.742Z,21.90
2022-11-29T02:42:21.080Z,18.88
2022-11-29T02:45:02.771Z,21.27
2022-11-29T02:47:51.577Z,22.23
2022-11-29T02:50:18.117Z,19.60
2022-11-29T02:52:47.588Z,20.98
2022-11-29T02:55:23.415Z,21.15
2022-11-29T02:58:17.785Z,23.10
2022-11-29T03:01:05.458Z,21.00
2022-11-29T03:03:41.143Z,29.77
2022-11-29T03:06:12.783Z,20.92
2022-11-29T03:08:43.245Z,25.35
2022-11-29T03:11:24.219Z,18.35
2022-11-29T03:14:06.188Z,19.02
2022-11-29T03:16:56.576Z,17.25
2022-11-29T03:19:51.633Z,17.95
2022-11-29T03:22:43.251Z,19.67
2022-11-29T03:25:22.962Z,18.83
2022-11-29T03:28:18.465Z,21.47
2022-11-29T03:30:59.803Z,22.38
2022-11-29T03:33:41.232Z,21.58
2022-11-29T03:36:26.042Z,23.67
2022-11-29T03:38:55.462Z,17.33
2022-11-29T03:41:28.990Z,28.67
2022-11-29T03:44:25.912Z,19.05
2022-11-29T03:47:08.963Z,27.85
2022-11-29T03:49:54.833Z,30.58
2022-11-29T03:52:40.205Z,29.48
2022-11-29T03:55:31.150Z,25.88
2022-11-29T03:58:20.793Z,25.73
2022-11-29T04:00:56.627Z,37.85
2022-11-29T04:03:54.610Z,38.70
2022-11-29T04:06:29.424Z,22.85
2022-11-29T04:09:33.075Z,28.50
2022-11-29T04:12:23.655Z,31.05
2022-11-29T04:15:28.745Z,39.88
2022-11-29T04:18:26.324Z,32.20
2022-11-29T04:20:55.919Z,34.53
2022-11-29T04:24:04.343Z,37.05
2022-11-29T04:26:50.081Z,38.58
2022-11-29T04:29:28.307Z,47.78
2022-11-29T04:32:39.994Z,51.58
2022-11-29T04:35:27.565Z,38.83
2022-11-29T04:38:28.396Z,50.20
2022-11-29T04:44:01.794Z,60.30
2022-11-29T04:46:52.902Z,56.20
2022-11-29T04:49:52.245Z,49.08
2022-11-29T04:52:39.858Z,58.75
2022-11-29T04:55:30.712Z,53.85
2022-11-29T04:58:00.242Z,56.83
2022-11-29T05:00:26.893Z,46.10
2022-11-29T05:03:04.658Z,73.90
2022-11-29T05:05:52.689Z,70.10
2022-11-29T05:09:01.575Z,66.03
2022-11-29T05:11:36.801Z,57.80
2022-11-29T05:14:24.640Z,61.80
2022-11-29T05:17:13.874Z,59.60
2022-11-29T05:19:49.577Z,63.83
2022-11-29T05:22:23.864Z,64.63
2022-11-29T05:24:56.624Z,67.72
2022-11-29T05:27:27.079Z,64.30
2022-11-29T05:30:03.591Z,76.05
2022-11-29T05:32:50.432Z,68.13
2022-11-29T05:35:44.567Z,65.35
2022-11-29T05:38:35.742Z,58.00
2022-11-29T05:41:18.453Z,70.60
2022-11-29T05:44:08.010Z,68.30
2022-11-29T05:46:46.198Z,71.18
2022-11-29T05:49:22.092Z,73.93
2022-11-29T05:52:09.354Z,68.40
2022-11-29T05:54:40.944Z,69.68
2022-11-29T05:57:27.768Z,74.90
2022-11-29T05:59:55.920Z,64.40
2022-11-29T06:02:54.186Z,70.10
2022-11-29T06:05:41.084Z,60.70
2022-11-29T06:08:16.738Z,67.00
2022-11-29T06:10:56.665Z,71.00
2022-11-29T06:13:42.800Z,74.20
2022-11-29T06:16:36.172Z,79.75
2022-11-29T06:19:08.664Z,75.65
2022-11-29T06:21:53.576Z,78.50
2022-11-29T06:24:34.324Z,76.57
2022-11-29T06:29:52.758Z,85.95
2022-11-29T06:32:40.705Z,75.93
2022-11-29T06:35:25.512Z,84.97
2022-11-29T06:37:53.959Z,96.75
2022-11-29T06:40:20.874Z,90.28
2022-11-29T06:42:48.807Z,89.07
2022-11-29T06:45:16.217Z,93.78
2022-11-29T06:47:58.148Z,108.75
2022-11-29T06:51:01.005Z,94.07
2022-11-29T06:53:47.477Z,100.75
2022-11-29T06:56:40.915Z,104.47
2022-11-29T06:59:37.096Z,101.20
2022-11-29T07:02:30.871Z,115.40
2022-11-29T07:05:00.269Z,115.78
2022-11-29T07:07:27.199Z,107.10
2022-11-29T07:09:59.509Z,104.80
2022-11-29T07:12:26.446Z,120.05
2022-11-29T07:14:54.317Z,113.22
2022-11-29T07:17:26.780Z,107.22
2022-11-29T07:20:22.236Z,100.50
2022-11-29T07:22:48.762Z,102.32
2022-11-29T07:25:25.180Z,103.88
2022-11-29T07:28:01.694Z,108.85
2022-11-29T07:30:38.170Z,99.50
2022-11-29T07:33:23.473Z,95.43
2022-11-29T07:36:09.311Z,98.68
2022-11-29T07:38:59.545Z,97.28
2022-11-29T07:41:40.934Z,117.32
2022-11-29T07:44:07.566Z,99.88
2022-11-29T07:46:34.264Z,117.70
2022-11-29T07:49:00.851Z,101.28
2022-11-29T07:51:27.437Z,105.57
2022-11-29T07:53:54.038Z,118.78
2022-11-29T07:56:20.633Z,112.60
2022-11-29T07:58:47.413Z,104.85
2022-11-29T08:01:14.123Z,112.53
2022-11-29T08:03:42.230Z,92.05
2022-11-29T08:06:08.860Z,104.40
2022-11-29T08:08:40.576Z,108.68
2022-11-29T08:11:12.075Z,121.32
2022-11-29T08:13:38.729Z,122.43
2022-11-29T08:16:05.543Z,103.85
2022-11-29T08:18:32.220Z,130.32
2022-11-29T08:20:58.857Z,133.35
2022-11-29T08:23:25.442Z,131.55
2022-11-29T08:25:59.356Z,153.32
2022-11-29T08:28:26.218Z,134.20
2022-11-29T08:31:09.381Z,144.38
2022-11-29T08:33:40.047Z,147.25
2022-11-29T08:38:34.569Z,154.30
2022-11-29T08:41:02.652Z,157.05
2022-11-29T08:43:30.294Z,141.07
2022-11-29T08:45:57.389Z,146.63
2022-11-29T08:48:24.230Z,139.55
2022-11-29T08:50:52.215Z,148.55
2022-11-29T08:53:38.003Z,129.13
2022-11-29T08:56:31.844Z,137.40
2022-11-29T08:58:53.742Z,130.70
2022-11-29T09:01:20.402Z,133.30
2022-11-29T09:04:03.033Z,124.70
2022-11-29T09:06:32.711Z,126.47
2022-11-29T09:09:00.401Z,121.80
2022-11-29T09:11:28.630Z,116.30
2022-11-29T09:13:58.213Z,105.15
2022-11-29T09:16:26.842Z,103.60
2022-11-29T09:18:55.823Z,103.57
2022-11-29T09:21:24.335Z,124.57
2022-11-29T09:23:57.858Z,96.70
2022-11-29T09:26:29.298Z,90.15
2022-11-29T09:28:57.860Z,95.75
2022-11-29T09:31:24.573Z,122.03
2022-11-29T09:33:51.726Z,97.50
2022-11-29T09:36:22.567Z,106.80
2022-11-29T09:38:51.702Z,99.95
2022-11-29T09:41:48.489Z,99.65
2022-11-29T09:44:22.588Z,117.38
2022-11-29T09:47:16.954Z,123.13
2022-11-29T09:50:03.598Z,111.38
2022-11-29T09:52:56.012Z,116.60
2022-11-29T09:55:55.789Z,115.03
2022-11-29T09:58:29.004Z,108.80
2022-11-29T10:01:05.650Z,109.95
2022-11-29T10:03:44.574Z,109.63
2022-11-29T10:06:26.666Z,106.38
2022-11-29T10:09:18.965Z,108.70
2022-11-29T10:12:06.177Z,108.35
2022-11-29T10:14:53.208Z,116.20
2022-11-29T10:17:31.709Z,121.53
2022-11-29T10:20:04.432Z,122.40
2022-11-29T10:22:38.832Z,125.22
2022-11-29T10:25:06.831Z,111.95
2022-11-29T10:27:35.294Z,115.00
2022-11-29T10:30:02.644Z,121.53
2022-11-29T10:32:31.869Z,124.70
2022-11-29T10:35:00.757Z,107.55
2022-11-29T10:37:30.103Z,113.95
2022-11-29T10:40:07.924Z,114.07
2022-11-29T10:42:54.834Z,98.75
2022-11-29T10:45:37.541Z,109.47
2022-11-29T10:48:26.862Z,98.05
2022-11-29T10:50:53.627Z,107.80
2022-11-29T10:53:24.613Z,111.85
2022-11-29T10:55:59.799Z,114.28
2022-11-29T10:58:29.139Z,106.63
2022-11-29T11:01:00.202Z,100.80
2022-11-29T11:03:47.034Z,111.32
2022-11-29T11:06:51.707Z,106.53
2022-11-29T11:09:28.568Z,96.68
2022-11-29T11:11:58.741Z,103.20
2022-11-29T11:14:31.165Z,101.10
2022-11-29T11:17:14.410Z,104.82
2022-11-29T11:19:42.330Z,97.30
2022-11-29T11:22:20.904Z,104.97
2022-11-29T11:24:56.749Z,99.15
2022-11-29T11:27:39.978Z,91.95
2022-11-29T11:30:08.218Z,91.10
2022-11-29T11:32:34.795Z,100.72
2022-11-29T11:35:02.350Z,75.13
2022-11-29T11:37:29.194Z,87.63
2022-11-29T11:40:21.849Z,87.40
2022-11-29T11:42:48.784Z,80.70
2022-11-29T11:45:16.282Z,82.35
2022-11-29T11:47:44.274Z,77.70
2022-11-29T11:50:36.361Z,86.20
2022-11-29T11:53:06.309Z,86.57
2022-11-29T11:55:44.124Z,88.50
2022-11-29T11:58:13.777Z,82.32
2022-11-29T12:01:14.008Z,85.83
2022-11-29T12:04:06.454Z,82.18
2022-11-29T12:06:51.574Z,80.05
2022-11-29T12:09:42.040Z,87.13
2022-11-29T12:12:25.644Z,69.90
2022-11-29T12:15:18.223Z,75.95
2022-11-29T12:18:03.573Z,75.55
2022-11-29T12:20:39.921Z,77.85
2022-11-29T12:23:24.299Z,74.60
2022-11-29T12:26:04.529Z,82.13
2022-11-29T12:28:39.030Z,67.47
2022-11-29T12:31:25.145Z,64.53
2022-11-29T12:34:10.653Z,64.85
2022-11-29T12:36:45.151Z,61.05
2022-11-29T12:39:35.828Z,73.32
2022-11-29T12:44:54.258Z,82.07
2022-11-29T12:47:39.271Z,60.50
2022-11-29T12:50:27.457Z,65.75
2022-11-29T12:53:12.497Z,69.65
2022-11-29T12:56:02.464Z,56.35
2022-11-29T12:59:00.264Z,81.53
2022-11-29T13:01:49.062Z,76.47
2022-11-29T13:04:37.478Z,75.10
2022-11-29T13:07:23.543Z,65.22
2022-11-29T13:10:17.733Z,75.00
2022-11-29T13:12:54.052Z,63.08
2022-11-29T13:15:34.896Z,65.75
2022-11-29T13:18:23.249Z,73.40
2022-11-29T13:20:49.761Z,76.97
2022-11-29T13:24:07.986Z,69.88
2022-11-29T13:26:34.161Z,75.90
2022-11-29T13:29:01.943Z,69.93
2022-11-29T13:31:28.954Z,76.68
2022-11-29T13:34:14.422Z,58.03
2022-11-29T13:39:37.256Z,54.47
2022-11-29T13:42:31.913Z,62.65
2022-11-29T13:45:23.956Z,57.60
2022-11-29T13:47:52.248Z,58.13
2022-11-29T13:50:30.491Z,50.67
2022-11-29T13:53:04.711Z,56.97
2022-11-29T13:55:31.478Z,66.38
2022-11-29T13:58:17.738Z,52.05
2022-11-29T14:00:44.768Z,55.80
2022-11-29T14:03:20.520Z,60.55
2022-11-29T14:05:51.625Z,58.80
2022-11-29T14:08:26.880Z,48.80
2022-11-29T14:10:55.697Z,65.03
2022-11-29T14:13:25.787Z,52.45
2022-11-29T14:15:57.756Z,52.88
2022-11-29T14:18:49.823Z,63.35
2022-11-29T14:21:16.570Z,49.50
2022-11-29T14:23:43.788Z,65.68
2022-11-29T14:26:10.315Z,60.78
2022-11-29T14:28:39.102Z,59.25
2022-11-29T14:31:07.239Z,53.75
2022-11-29T14:33:56.399Z,68.10
2022-11-29T14:37:10.129Z,57.33
2022-11-29T14:39:44.243Z,63.97
2022-11-29T14:42:18.610Z,64.70
2022-11-29T14:44:58.285Z,70.68
2022-11-29T14:47:34.356Z,66.05
2022-11-29T14:50:04.054Z,78.55
2022-11-29T14:52:54.141Z,68.22
2022-11-29T14:55:20.640Z,66.80
2022-11-29T14:57:47.223Z,72.30
2022-11-29T15:00:25.887Z,76.70
2022-11-29T15:03:02.760Z,70.00
2022-11-29T15:05:44.924Z,69.93
2022-11-29T15:08:25.347Z,75.10
2022-11-29T15:10:56.133Z,70.90
2022-11-29T15:13:31.788Z,76.25
2022-11-29T15:16:23.197Z,72.63
2022-11-29T15:19:01.955Z,79.40
2022-11-29T15:22:07.664Z,85.03
2022-11-29T15:25:05.515Z,82.13
2022-11-29T15:27:35.158Z,76.65
2022-11-29T15:30:22.974Z,83.90
2022-11-29T15:32:49.631Z,83.70
2022-11-29T15:35:20.238Z,93.57
2022-11-29T15:40:17.890Z,83.57
2022-11-29T15:42:50.614Z,90.10
2022-11-29T15:45:37.478Z,95.55
2022-11-29T15:48:21.544Z,92.60
2022-11-29T15:50:55.772Z,85.47
2022-11-29T15:53:47.359Z,96.72
2022-11-29T15:56:25.105Z,93.40
2022-11-29T15:58:53.563Z,104.25
2022-11-29T16:01:21.472Z,106.95
2022-11-29T16:06:42.870Z,96.68
2022-11-29T16:09:19.348Z,91.07
2022-11-29T16:11:46.855Z,94.35
2022-11-29T16:14:21.041Z,103.85
2022-11-29T16:16:52.458Z,90.72
2022-11-29T16:19:23.332Z,106.60
2022-11-29T16:22:23.276Z,108.53
2022-11-29T16:25:00.976Z,105.57
2022-11-29T16:27:34.257Z,106.70
2022-11-29T16:30:01.877Z,103.25
2022-11-29T16:32:33.847Z,102.57
2022-11-29T16:35:21.191Z,102.97
2022-11-29T16:37:48.163Z,111.90
2022-11-29T16:40:23.799Z,106.68
2022-11-29T16:43:11.501Z,107.85
2022-11-29T16:45:42.242Z,110.03
2022-11-29T16:48:26.947Z,96.40
2022-11-29T16:51:14.700Z,103.68
2022-11-29T16:53:49.690Z,110.95
2022-11-29T16:56:18.924Z,105.20
2022-11-29T16:59:25.304Z,108.93
2022-11-29T17:01:35.141Z,103.60
2022-11-29T17:04:01.937Z,115.45
2022-11-29T17:06:29.578Z,120.32
2022-11-29T17:09:03.969Z,127.60
2022-11-29T17:11:30.571Z,117.70
2022-11-29T17:13:57.332Z,115.28
2022-11-29T17:16:24.697Z,120.72
2022-11-29T17:18:52.787Z,119.20
2022-11-29T17:21:22.437Z,117.32
2022-11-29T17:23:49.277Z,125.40
2022-11-29T17:26:16.237Z,131.90
2022-11-29T17:28:44.441Z,123.93
2022-11-29T17:31:20.047Z,112.28
2022-11-29T17:33:46.970Z,115.75
2022-11-29T17:36:16.588Z,119.25
2022-11-29T17:38:44.362Z,107.50
2022-11-29T17:41:16.251Z,111.38
2022-11-29T17:43:42.900Z,117.65
2022-11-29T17:46:21.188Z,114.90
2022-11-29T17:48:48.171Z,111.15
2022-11-29T17:51:43.734Z,105.10
2022-11-29T17:54:04.345Z,109.30
2022-11-29T17:56:31.365Z,112.82
2022-11-29T17:59:00.105Z,101.35
2022-11-29T18:01:29.146Z,99.03
2022-11-29T18:03:58.181Z,95.78
2022-11-29T18:06:27.004Z,97.18
2022-11-29T18:08:57.266Z,101.57
2022-11-29T18:11:26.880Z,82.72
2022-11-29T18:13:54.352Z,94.28
2022-11-29T18:16:24.933Z,89.55
2022-11-29T18:21:26.109Z,76.93
2022-11-29T18:23:53.166Z,88.57
2022-11-29T18:26:22.170Z,94.85
2022-11-29T18:28:49.188Z,92.10
2022-11-29T18:31:18.629Z,101.32
2022-11-29T18:33:46.542Z,86.30
2022-11-29T18:36:15.863Z,82.68
2022-11-29T18:38:43.854Z,97.60
2022-11-29T18:41:21.432Z,90.95
2022-11-29T18:43:49.291Z,93.18
2022-11-29T18:46:18.749Z,81.88
2022-11-29T18:48:47.007Z,86.63
2022-11-29T18:51:16.432Z,86.20
2022-11-29T18:53:43.882Z,82.88
2022-11-29T18:56:19.682Z,83.50
2022-11-29T18:58:56.839Z,82.28
2022-11-29T19:01:26.760Z,66.93
2022-11-29T19:03:54.921Z,77.10
2022-11-29T19:06:23.926Z,82.47
2022-11-29T19:08:52.005Z,65.82
2022-11-29T19:11:20.934Z,68.28
2022-11-29T19:13:48.213Z,78.35
2022-11-29T19:16:17.305Z,72.30
2022-11-29T19:18:45.406Z,69.50
2022-11-29T19:21:14.134Z,65.63
2022-11-29T19:23:41.644Z,68.03
2022-11-29T19:26:09.403Z,67.93
2022-11-29T19:28:44.165Z,69.78
2022-11-29T19:31:14.481Z,70.97
2022-11-29T19:33:42.419Z,78.72
2022-11-29T19:36:14.155Z,73.45
2022-11-29T19:38:41.510Z,68.57
2022-11-29T19:41:12.068Z,68.70
2022-11-29T19:46:13.197Z,65.95
2022-11-29T19:48:40.299Z,72.35
2022-11-29T19:51:09.423Z,70.85
2022-11-29T19:53:36.162Z,68.10
2022-11-29T19:56:07.454Z,73.80
2022-11-29T19:58:34.180Z,69.65
2022-11-29T20:01:11.761Z,66.63
2022-11-29T20:03:38.551Z,57.20
2022-11-29T20:06:05.746Z,66.47
2022-11-29T20:08:32.525Z,59.80
2022-11-29T20:11:10.193Z,68.22
2022-11-29T20:13:38.028Z,68.35
2022-11-29T20:16:06.834Z,70.57
2022-11-29T20:18:33.896Z,64.72
2022-11-29T20:23:29.587Z,71.68
2022-11-29T20:25:56.610Z,78.20
2022-11-29T20:28:23.402Z,78.80
2022-11-29T20:30:50.098Z,76.18
2022-11-29T20:33:21.903Z,69.78
2022-11-29T20:35:57.448Z,67.43
2022-11-29T20:38:33.000Z,77.47
2022-11-29T20:41:08.529Z,77.57
2022-11-29T20:43:43.921Z,75.05
2022-11-29T20:46:10.920Z,74.18
2022-11-29T20:48:37.769Z,72.18
2022-11-29T20:51:04.693Z,74.50
2022-11-29T20:53:40.681Z,82.88
2022-11-29T20:56:08.873Z,68.43
2022-11-29T20:58:35.740Z,82.00
2022-11-29T21:01:02.508Z,79.07
2022-11-29T21:03:29.911Z,73.78
2022-11-29T21:05:57.165Z,71.80
2022-11-29T21:08:26.443Z,67.65
2022-11-29T21:10:53.642Z,73.28
2022-11-29T21:13:21.773Z,75.38
2022-11-29T21:15:48.899Z,81.53
2022-11-29T21:18:25.087Z,80.90
2022-11-29T21:21:10.136Z,80.93
2022-11-29T21:23:48.041Z,89.80
2022-11-29T21:26:26.480Z,73.40
2022-11-29T21:29:17.431Z,72.68
2022-11-29T21:31:45.232Z,65.53
2022-11-29T21:34:11.895Z,63.92
2022-11-29T21:36:39.141Z,68.50
2022-11-29T21:39:07.271Z,69.22
2022-11-29T21:41:34.337Z,76.35
2022-11-29T21:44:08.701Z,67.82
2022-11-29T21:46:35.721Z,75.60
2022-11-29T21:49:02.372Z,70.20
2022-11-29T21:51:28.988Z,61.33
2022-11-29T21:53:55.666Z,71.38
2022-11-29T21:56:22.306Z,74.80
2022-11-29T21:58:48.939Z,70.10
2022-11-29T22:01:18.639Z,67.50
2022-11-29T22:03:45.382Z,73.17
2022-11-29T22:06:16.198Z,55.42
2022-11-29T22:08:42.816Z,62.83
2022-11-29T22:11:11.463Z,67.07
2022-11-29T22:14:02.861Z,61.13
2022-11-29T22:16:30.154Z,64.72
2022-11-29T22:18:56.878Z,70.90
2022-11-29T22:21:23.603Z,61.42
2022-11-29T22:23:52.155Z,67.80
2022-11-29T22:26:18.800Z,60.20
2022-11-29T22:28:45.461Z,59.70
2022-11-29T22:31:12.656Z,60.03
2022-11-29T22:33:40.081Z,57.53
2022-11-29T22:36:09.212Z,56.85
2022-11-29T22:38:35.961Z,58.65
2022-11-29T22:41:04.677Z,60.20
2022-11-29T22:43:32.707Z,58.10
2022-11-29T22:46:10.349Z,65.20
2022-11-29T22:48:39.084Z,57.95
2022-11-29T22:51:09.640Z,62.03
2022-11-29T22:53:37.008Z,66.18
2022-11-29T22:56:05.189Z,59.63
2022-11-29T22:58:32.257Z,50.70
2022-11-29T23:01:09.347Z,69.53
2022-11-29T23:03:37.645Z,63.88
2022-11-29T23:06:15.182Z,67.50
2022-11-29T23:08:42.807Z,55.78
2022-11-29T23:11:12.381Z,65.15
2022-11-29T23:13:40.249Z,68.45
2022-11-29T23:16:09.544Z,64.18
2022-11-29T23:18:36.364Z,69.38
2022-11-29T23:21:15.650Z,74.45
2022-11-29T23:23:42.954Z,74.63
2022-11-29T23:26:19.919Z,75.68
2022-11-29T23:28:47.014Z,78.10
2022-11-29T23:31:14.145Z,88.00
2022-11-29T23:33:40.903Z,78.78
2022-11-29T23:36:09.036Z,71.07
2022-11-29T23:38:36.698Z,70.30
2022-11-29T23:41:04.367Z,78.78
2022-11-29T23:43:36.040Z,81.63
2022-11-29T23:46:07.854Z,75.30
2022-11-29T23:48:34.621Z,75.15
2022-11-29T23:51:01.430Z,85.50
2022-11-29T23:53:28.047Z,82.55
2022-11-29T23:56:03.136Z,91.63
2022-11-29T23:58:30.445Z,82.47
